Fairplay, Pennsylvania
Current Conditions -  °F | °C
As of 4:53 AM on Tuesday 27 Jan 2015 (Local Time) from KRYT Reporting Station
Light Snow Light Snow  
Wind Chill: 25°   Ceiling: 3400
Heat Index: 25°   Visibility: 4mi
Dew Point: 19°   Wind: 3mph
Humidity: 78%   Direction: NA
Pressure: 29.72"   Gusts: NA
Location:  39.8288°N, 77.2253°W
Report Text: KRYT 270953Z AUTO VRB03KT 4SM -SN OVC034 M04/M07 A2972 RMK AO2 SNB36 SLP085 P0000 T10391072 $
Loading
Personal Weather Stations






























Interactive Weather Map New forecast layout! Learn more

10-Day Weather Forecast

Advertisements
Track Severe Weather on mobile